createdAt,value
2018-01-31T01:52:21.203Z,10.03
2018-01-31T01:57:21.119Z,8.60
2018-01-31T02:02:24.012Z,10.10
2018-01-31T02:07:26.692Z,6.87
2018-01-31T02:12:29.682Z,7.43
2018-01-31T02:17:32.391Z,8.23
2018-01-31T02:22:35.820Z,6.73
2018-01-31T02:27:38.453Z,10.13
2018-01-31T02:32:42.070Z,10.60
2018-01-31T02:37:44.728Z,7.97
2018-01-31T02:42:48.279Z,7.30
2018-01-31T02:47:51.722Z,10.90
2018-01-31T02:52:55.608Z,11.73
2018-01-31T02:57:58.329Z,7.90
2018-01-31T03:03:01.954Z,8.23
2018-01-31T03:08:04.597Z,9.00
2018-01-31T03:13:07.383Z,5.97
2018-01-31T03:18:10.113Z,7.27
2018-01-31T03:23:13.285Z,10.03
2018-01-31T03:28:16.685Z,9.20
2018-01-31T03:33:19.552Z,9.37
2018-01-31T03:38:22.216Z,11.00
2018-01-31T03:43:25.305Z,9.43
2018-01-31T03:48:27.958Z,8.10
2018-01-31T03:53:31.281Z,11.90
2018-01-31T03:58:33.968Z,7.07
2018-01-31T04:03:36.933Z,9.30
2018-01-31T04:08:40.334Z,8.00
2018-01-31T04:13:43.237Z,7.10
2018-01-31T04:18:46.696Z,7.33
2018-01-31T04:23:49.698Z,7.50
2018-01-31T04:28:52.396Z,9.40
2018-01-31T04:33:55.094Z,7.50
2018-01-31T04:38:57.744Z,8.40
2018-01-31T04:44:00.948Z,8.47
2018-01-31T04:49:03.599Z,11.57
2018-01-31T04:54:07.313Z,9.93
2018-01-31T04:59:10.689Z,7.70
2018-01-31T05:04:13.426Z,7.17
2018-01-31T05:09:16.873Z,10.43
2018-01-31T05:14:19.968Z,6.23
2018-01-31T05:19:23.397Z,6.83
2018-01-31T05:24:26.727Z,8.70
2018-01-31T05:29:29.394Z,9.27
2018-01-31T05:34:32.942Z,7.37
2018-01-31T05:39:35.617Z,8.40
2018-01-31T05:44:39.527Z,9.70
2018-01-31T05:49:42.180Z,7.67
2018-01-31T05:54:45.472Z,7.60
2018-01-31T05:59:48.135Z,6.43
2018-01-31T06:04:51.413Z,7.83
2018-01-31T06:09:54.084Z,10.50
2018-01-31T06:14:57.676Z,9.17
2018-01-31T06:20:00.334Z,7.97
2018-01-31T06:25:03.921Z,7.67
2018-01-31T06:30:06.586Z,10.30
2018-01-31T06:35:09.677Z,11.40
2018-01-31T06:40:12.342Z,12.57
2018-01-31T06:45:15.221Z,7.73
2018-01-31T06:50:18.602Z,11.13
2018-01-31T06:55:21.770Z,8.10
2018-01-31T07:00:24.397Z,5.77
2018-01-31T07:05:27.619Z,6.93
2018-01-31T07:10:30.294Z,7.07
2018-01-31T07:15:33.900Z,12.47
2018-01-31T07:20:36.542Z,9.00
2018-01-31T07:25:39.834Z,8.10
2018-01-31T07:30:42.481Z,8.10
2018-01-31T07:35:45.715Z,6.63
2018-01-31T07:40:49.118Z,6.27
2018-01-31T07:45:52.761Z,8.57
2018-01-31T07:50:55.551Z,11.30
2018-01-31T07:55:58.903Z,11.23
2018-01-31T08:01:01.540Z,7.47
2018-01-31T08:06:05.013Z,6.57
2018-01-31T08:11:07.616Z,6.63
2018-01-31T08:16:10.846Z,5.80
2018-01-31T08:21:13.517Z,9.60
2018-01-31T08:26:16.899Z,6.57
2018-01-31T08:31:19.535Z,7.10
2018-01-31T08:36:23.040Z,7.67
2018-01-31T08:41:26.536Z,8.73
2018-01-31T08:46:29.288Z,6.73
2018-01-31T08:51:31.912Z,7.83
2018-01-31T08:56:35.186Z,4.93
2018-01-31T09:01:37.828Z,7.50
2018-01-31T09:06:40.782Z,9.33
2018-01-31T09:11:43.735Z,6.83
2018-01-31T09:16:46.671Z,4.83
2018-01-31T09:21:49.286Z,8.97
2018-01-31T09:26:52.462Z,5.23
2018-01-31T09:31:55.082Z,6.53
2018-01-31T09:36:59.320Z,7.50
2018-01-31T09:42:02.725Z,4.60
2018-01-31T09:47:05.641Z,5.67
2018-01-31T09:52:09.047Z,14.27
2018-01-31T09:57:12.410Z,8.47
2018-01-31T10:02:15.088Z,7.37
2018-01-31T10:07:18.514Z,7.97
2018-01-31T10:12:21.134Z,9.17
2018-01-31T10:17:23.746Z,9.90
2018-01-31T10:22:26.363Z,8.73
2018-01-31T10:27:29.803Z,6.63
2018-01-31T10:32:33.178Z,6.43
2018-01-31T10:37:35.971Z,5.53
2018-01-31T10:42:38.595Z,6.80
2018-01-31T10:47:41.861Z,6.60
2018-01-31T10:52:44.477Z,5.10
2018-01-31T10:57:47.835Z,4.37
2018-01-31T11:02:50.472Z,6.77
2018-01-31T11:07:53.666Z,6.50
2018-01-31T11:12:57.051Z,4.90
2018-01-31T11:18:00.624Z,4.77
2018-01-31T11:23:03.316Z,3.93
2018-01-31T11:28:06.638Z,6.07
2018-01-31T11:33:09.264Z,5.33
2018-01-31T11:38:12.721Z,6.57
2018-01-31T11:43:15.360Z,6.20
2018-01-31T11:48:18.013Z,7.03
2018-01-31T11:53:20.624Z,6.40
2018-01-31T11:58:24.147Z,5.90
2018-01-31T12:03:27.536Z,7.87
2018-01-31T12:08:30.487Z,8.03
2018-01-31T12:19:35.702Z,5.80
2018-01-31T12:24:50.575Z,6.63
2018-01-31T12:30:05.151Z,9.63
2018-01-31T12:35:19.769Z,8.80
2018-01-31T12:40:21.933Z,9.17
2018-01-31T12:45:25.347Z,8.33
2018-01-31T12:50:39.953Z,11.47
2018-01-31T12:55:55.541Z,12.67
2018-01-31T13:01:10.161Z,10.57
2018-01-31T13:06:25.282Z,9.70
2018-01-31T13:11:51.486Z,8.93
2018-01-31T13:17:05.943Z,8.03
2018-01-31T13:27:55.196Z,12.17
2018-01-31T13:33:15.841Z,6.83
2018-01-31T13:38:30.403Z,9.67
2018-01-31T13:43:45.052Z,10.60
2018-01-31T13:48:59.582Z,7.23
2018-01-31T13:54:14.182Z,10.00
2018-01-31T13:59:28.569Z,11.43
2018-01-31T14:04:43.133Z,8.10
2018-01-31T14:09:58.352Z,8.83
2018-01-31T14:15:09.815Z,10.60
2018-01-31T14:20:25.095Z,10.30
2018-01-31T14:25:39.840Z,8.63
2018-01-31T14:30:55.336Z,9.17
2018-01-31T14:36:10.223Z,9.27
2018-01-31T14:41:12.376Z,8.23
2018-01-31T14:46:15.981Z,9.37
2018-01-31T14:51:18.109Z,6.97
2018-01-31T14:56:20.547Z,7.43
2018-01-31T15:01:22.676Z,5.70
2018-01-31T15:06:24.866Z,5.10
2018-01-31T15:11:27.026Z,7.90
2018-01-31T15:16:30.017Z,5.57
2018-01-31T15:21:32.121Z,6.10
2018-01-31T15:26:35.096Z,7.97
2018-01-31T15:31:37.218Z,6.37
2018-01-31T15:36:39.701Z,9.90
2018-01-31T15:41:41.831Z,9.90
2018-01-31T15:46:44.503Z,9.93
2018-01-31T15:51:46.641Z,7.83
2018-01-31T15:56:49.032Z,10.87
2018-01-31T16:01:51.146Z,9.63
2018-01-31T16:06:53.510Z,9.67
2018-01-31T16:11:55.673Z,9.23
2018-01-31T16:16:59.136Z,9.53
2018-01-31T16:22:01.742Z,9.90
2018-01-31T16:32:45.642Z,10.20
2018-01-31T16:37:49.092Z,7.90
2018-01-31T16:42:52.483Z,8.43
2018-01-31T16:47:55.223Z,9.00
2018-01-31T16:52:58.632Z,8.83
2018-01-31T16:58:02.470Z,8.97
2018-01-31T17:03:05.986Z,6.47
2018-01-31T17:08:08.732Z,7.80
2018-01-31T17:13:11.378Z,5.40
2018-01-31T17:18:15.272Z,8.03
2018-01-31T17:23:17.880Z,4.77
2018-01-31T17:28:20.664Z,3.57
2018-01-31T17:33:23.328Z,4.80
2018-01-31T17:38:26.650Z,3.83
2018-01-31T17:43:29.267Z,4.30
2018-01-31T17:48:32.026Z,3.90
2018-01-31T17:53:35.407Z,3.90
2018-01-31T17:58:38.461Z,4.83
2018-01-31T18:03:41.175Z,4.73
2018-01-31T18:08:43.841Z,5.17
2018-01-31T18:13:47.278Z,3.63
2018-01-31T18:18:50.015Z,3.80
2018-01-31T18:23:52.672Z,6.20
2018-01-31T18:28:55.670Z,3.70
2018-01-31T18:33:58.350Z,2.80
2018-01-31T18:39:01.636Z,3.33
2018-01-31T18:44:04.316Z,3.13
2018-01-31T18:49:07.279Z,2.53
2018-01-31T18:54:09.984Z,2.60
2018-01-31T18:59:14.049Z,3.50
2018-01-31T19:04:16.719Z,4.53
2018-01-31T19:09:20.969Z,3.70
2018-01-31T19:14:24.421Z,2.57
2018-01-31T19:19:27.389Z,3.00
2018-01-31T19:24:30.786Z,3.40
2018-01-31T19:29:35.171Z,3.93
2018-01-31T19:34:37.792Z,2.30
2018-01-31T19:39:42.189Z,4.00
2018-01-31T19:44:45.640Z,5.23
2018-01-31T19:49:48.512Z,3.90
2018-01-31T19:54:51.237Z,4.27
2018-01-31T19:59:54.679Z,5.77
2018-01-31T20:04:57.310Z,6.67
2018-01-31T20:10:00.882Z,6.13
2018-01-31T20:15:03.523Z,5.17
2018-01-31T20:20:07.212Z,5.97
2018-01-31T20:25:09.872Z,6.97
2018-01-31T20:30:13.369Z,5.37
2018-01-31T20:35:16.029Z,5.17
2018-01-31T20:40:19.616Z,7.03
2018-01-31T20:45:22.210Z,6.87
2018-01-31T20:50:26.166Z,5.40
2018-01-31T20:55:30.144Z,8.07
2018-01-31T21:00:34.098Z,5.07
2018-01-31T21:05:37.549Z,4.80
2018-01-31T21:10:40.702Z,5.50
2018-01-31T21:15:43.351Z,4.97
2018-01-31T21:20:46.082Z,3.47
2018-01-31T21:25:49.042Z,6.20
2018-01-31T21:30:52.597Z,6.13
2018-01-31T21:35:55.265Z,4.27
2018-01-31T21:40:58.037Z,6.23
2018-01-31T21:46:01.663Z,4.83
2018-01-31T21:51:05.903Z,6.13
2018-01-31T21:56:09.279Z,6.03
2018-01-31T22:01:12.195Z,5.07
2018-01-31T22:06:14.827Z,5.50
2018-01-31T22:11:19.062Z,5.60
2018-01-31T22:16:22.459Z,4.93
2018-01-31T22:21:25.188Z,4.67
2018-01-31T22:26:28.653Z,6.87
2018-01-31T22:31:31.384Z,4.43
2018-01-31T22:36:34.011Z,5.10
2018-01-31T22:41:37.285Z,6.47
2018-01-31T22:46:40.016Z,5.57
2018-01-31T22:51:43.696Z,5.27
2018-01-31T22:56:46.344Z,4.50
2018-01-31T23:01:50.171Z,6.40
2018-01-31T23:06:52.810Z,4.37
2018-01-31T23:11:55.823Z,8.07
2018-01-31T23:16:58.498Z,5.17
2018-01-31T23:22:01.702Z,5.10
2018-01-31T23:27:04.391Z,4.73
2018-01-31T23:32:08.101Z,5.03
2018-01-31T23:37:11.551Z,6.80
2018-01-31T23:42:14.559Z,5.80
2018-01-31T23:47:17.256Z,6.53
2018-01-31T23:52:20.204Z,4.60
2018-01-31T23:57:23.673Z,5.13
